Time,TemperatureF,DewpointF,PressureIn,WindDirection,WindDirectionDegrees,WindSpeedMPH,WindSpeedGustMPH,Humidity,HourlyPrecipIn,Conditions,Clouds,dailyrainin,SoftwareType,DateUTC
2013-04-24 00:10:00,46.8,35.2,29.44,West,270,12.3,12.3,64,0.00,,---,0.00,VWS V14.01,2013-04-24 05:10:00,
2013-04-24 00:15:00,46.4,33.3,29.44,West,270,12.3,12.3,60,0.00,,---,0.00,VWS V14.01,2013-04-24 05:15:00,
2013-04-24 00:23:00,46.4,32.9,29.44,West,270,12.3,12.3,59,0.00,,---,0.00,VWS V14.01,2013-04-24 05:23:00,
2013-04-24 00:28:00,46.2,32.3,29.44,West,270,12.3,12.3,58,0.00,,---,0.00,VWS V14.01,2013-04-24 05:28:00,
2013-04-24 00:33:00,46.2,32.3,29.44,West,270,12.3,12.3,58,0.00,,---,0.00,VWS V14.01,2013-04-24 05:33:00,
2013-04-24 00:38:00,46.2,32.3,29.44,West,270,12.3,12.3,58,0.00,,---,0.00,VWS V14.01,2013-04-24 05:38:00,
2013-04-24 00:43:00,46.2,32.3,29.44,West,270,12.3,12.3,58,0.00,,---,0.00,VWS V14.01,2013-04-24 05:43:00,
2013-04-24 00:48:00,46.0,31.7,29.47,West,270,12.3,12.3,57,0.00,,---,0.00,VWS V14.01,2013-04-24 05:48:00,
2013-04-24 00:53:00,45.7,30.0,29.47,West,270,12.3,12.3,54,0.00,,---,0.00,VWS V14.01,2013-04-24 05:53:00,
2013-04-24 00:58:00,45.5,29.4,29.47,West,270,12.3,12.3,53,0.00,,---,0.00,VWS V14.01,2013-04-24 05:58:00,
2013-04-24 01:03:00,45.5,29.8,29.47,West,270,12.3,12.3,54,0.00,,---,0.00,VWS V14.01,2013-04-24 06:03:00,
2013-04-24 01:08:00,45.3,30.6,29.47,West,270,12.3,12.3,56,0.00,,---,0.00,VWS V14.01,2013-04-24 06:08:00,
2013-04-24 01:13:00,45.1,30.8,29.47,West,270,12.3,12.3,57,0.00,,---,0.00,VWS V14.01,2013-04-24 06:13:00,
2013-04-24 01:18:00,45.1,31.7,29.47,West,270,12.3,12.3,59,0.00,,---,0.00,VWS V14.01,2013-04-24 06:18:00,
2013-04-24 01:23:00,44.8,31.3,29.47,West,270,12.3,12.3,59,0.00,,---,0.00,VWS V14.01,2013-04-24 06:23:00,
2013-04-24 01:28:00,44.6,31.6,29.47,West,270,12.3,12.3,60,0.00,,---,0.00,VWS V14.01,2013-04-24 06:28:00,
2013-04-24 01:33:00,44.1,31.9,29.44,West,270,12.3,12.3,62,0.00,,---,0.00,VWS V14.01,2013-04-24 06:33:00,
2013-04-24 01:38:00,43.7,32.3,29.44,West,270,12.3,12.3,64,0.00,,---,0.00,VWS V14.01,2013-04-24 06:38:00,
2013-04-24 01:43:00,43.7,33.5,29.44,West,270,12.3,12.3,67,0.00,,---,0.00,VWS V14.01,2013-04-24 06:43:00,
2013-04-24 01:48:00,43.5,34.0,29.47,West,270,12.3,12.3,69,0.00,,---,0.00,VWS V14.01,2013-04-24 06:48:00,
2013-04-24 01:53:00,43.3,34.2,29.47,West,270,12.3,12.3,70,0.00,,---,0.00,VWS V14.01,2013-04-24 06:53:00,
2013-04-24 01:58:00,43.0,33.9,29.47,West,270,12.3,12.3,70,0.00,,---,0.00,VWS V14.01,2013-04-24 06:58:00,
2013-04-24 02:03:00,42.8,34.1,29.47,West,270,12.3,12.3,71,0.00,,---,0.00,VWS V14.01,2013-04-24 07:03:00,
2013-04-24 02:08:00,42.8,34.1,29.47,West,270,12.3,12.3,71,0.00,,---,0.00,VWS V14.01,2013-04-24 07:08:00,
2013-04-24 02:13:00,42.6,34.2,29.47,West,270,12.3,12.3,72,0.00,,---,0.00,VWS V14.01,2013-04-24 07:13:00,
2013-04-24 02:18:00,42.4,35.1,29.44,West,270,12.3,12.3,75,0.00,,---,0.00,VWS V14.01,2013-04-24 07:18:00,
2013-04-24 02:23:00,42.4,36.1,29.44,West,270,12.3,12.3,78,0.00,,---,0.00,VWS V14.01,2013-04-24 07:23:00,
2013-04-24 02:28:00,42.1,35.4,29.44,West,270,12.3,12.3,77,0.04,,---,0.04,VWS V14.01,2013-04-24 07:28:00,
2013-04-24 02:33:00,41.7,35.4,29.47,West,270,12.3,12.3,78,0.13,,---,0.13,VWS V14.01,2013-04-24 07:33:00,
2013-04-24 02:39:00,41.5,35.5,29.47,West,270,12.3,12.3,79,0.13,,---,0.13,VWS V14.01,2013-04-24 07:39:00,
2013-04-24 02:44:00,41.4,36.0,29.47,West,270,12.3,12.3,81,0.13,,---,0.13,VWS V14.01,2013-04-24 07:44:00,
2013-04-24 02:49:00,41.2,36.1,29.50,West,270,12.3,12.3,82,0.17,,---,0.17,VWS V14.01,2013-04-24 07:49:00,
2013-04-24 02:54:00,41.0,35.9,29.50,West,270,12.3,12.3,82,0.17,,---,0.17,VWS V14.01,2013-04-24 07:54:00,
2013-04-24 02:59:00,41.0,36.2,29.50,West,270,12.3,12.3,83,0.21,,---,0.21,VWS V14.01,2013-04-24 07:59:00,
2013-04-24 03:04:00,40.8,36.1,29.50,West,270,12.3,12.3,83,0.21,,---,0.21,VWS V14.01,2013-04-24 08:04:00,
2013-04-24 03:09:00,40.6,36.2,29.50,West,270,12.3,12.3,84,0.21,,---,0.21,VWS V14.01,2013-04-24 08:09:00,
2013-04-24 03:14:00,40.6,36.2,29.50,West,270,12.3,12.3,84,0.25,,---,0.25,VWS V14.01,2013-04-24 08:14:00,
2013-04-24 03:19:00,40.6,36.8,29.50,West,270,12.3,12.3,86,0.25,,---,0.25,VWS V14.01,2013-04-24 08:19:00,
2013-04-24 03:24:00,40.6,37.1,29.50,West,270,12.3,12.3,87,0.25,,---,0.25,VWS V14.01,2013-04-24 08:24:00,
2013-04-24 03:29:00,40.6,37.1,29.50,West,270,12.3,12.3,87,0.25,,---,0.29,VWS V14.01,2013-04-24 08:29:00,
2013-04-24 03:34:00,41.0,37.7,29.47,West,270,12.3,12.3,88,0.16,,---,0.29,VWS V14.01,2013-04-24 08:34:00,
2013-04-24 03:39:00,40.8,38.1,29.47,West,270,12.3,12.3,90,0.16,,---,0.29,VWS V14.01,2013-04-24 08:39:00,
2013-04-24 03:44:00,40.6,37.9,29.47,West,270,12.3,12.3,90,0.20,,---,0.33,VWS V14.01,2013-04-24 08:44:00,
2013-04-24 03:49:00,40.6,37.9,29.53,West,270,12.3,12.3,90,0.16,,---,0.33,VWS V14.01,2013-04-24 08:49:00,
2013-04-24 03:54:00,40.6,37.9,29.53,West,270,12.3,12.3,90,0.16,,---,0.33,VWS V14.01,2013-04-24 08:54:00,
2013-04-24 03:59:00,40.6,37.9,29.53,West,270,12.3,12.3,90,0.17,,---,0.38,VWS V14.01,2013-04-24 08:59:00,
2013-04-24 04:04:00,40.8,37.8,29.47,West,270,12.3,12.3,89,0.17,,---,0.38,VWS V14.01,2013-04-24 09:04:00,
2013-04-24 04:09:00,41.0,38.3,29.47,West,270,12.3,12.3,90,0.17,,---,0.38,VWS V14.01,2013-04-24 09:09:00,
2013-04-24 04:14:00,41.0,38.3,29.47,West,270,12.3,12.3,90,0.13,,---,0.38,VWS V14.01,2013-04-24 09:14:00,
2013-04-24 04:19:00,41.0,38.3,29.53,West,270,12.3,12.3,90,0.13,,---,0.38,VWS V14.01,2013-04-24 09:19:00,
2013-04-24 04:24:00,41.0,38.3,29.53,West,270,12.3,12.3,90,0.13,,---,0.38,VWS V14.01,2013-04-24 09:24:00,
2013-04-24 04:29:00,41.0,38.3,29.53,West,270,12.3,12.3,90,0.09,,---,0.38,VWS V14.01,2013-04-24 09:29:00,
2013-04-24 04:34:00,41.2,38.5,29.50,West,270,12.3,12.3,90,0.09,,---,0.38,VWS V14.01,2013-04-24 09:34:00,
2013-04-24 04:39:00,41.2,38.8,29.50,West,270,12.3,12.3,91,0.09,,---,0.38,VWS V14.01,2013-04-24 09:39:00,
2013-04-24 04:44:00,41.4,39.2,29.50,West,270,12.3,12.3,92,0.05,,---,0.38,VWS V14.01,2013-04-24 09:44:00,
2013-04-24 04:49:00,41.2,38.8,29.53,West,270,12.3,12.3,91,0.05,,---,0.38,VWS V14.01,2013-04-24 09:49:00,
2013-04-24 04:54:00,41.4,38.7,29.53,West,270,12.3,12.3,90,0.05,,---,0.38,VWS V14.01,2013-04-24 09:54:00,
2013-04-24 04:59:00,41.2,38.2,29.53,West,270,12.3,12.3,89,0.00,,---,0.38,VWS V14.01,2013-04-24 09:59:00,
2013-04-24 05:04:00,41.2,37.6,29.53,West,270,12.3,12.3,87,0.00,,---,0.38,VWS V14.01,2013-04-24 10:04:00,
2013-04-24 05:09:00,41.2,37.3,29.53,West,270,12.3,12.3,86,0.00,,---,0.38,VWS V14.01,2013-04-24 10:09:00,
2013-04-24 05:14:00,41.2,36.4,29.53,West,270,12.3,12.3,83,0.00,,---,0.38,VWS V14.01,2013-04-24 10:14:00,
2013-04-24 05:19:00,41.0,35.3,29.56,West,270,12.3,12.3,80,0.00,,---,0.38,VWS V14.01,2013-04-24 10:19:00,
2013-04-24 05:24:00,41.0,35.0,29.56,West,270,12.3,12.3,79,0.00,,---,0.38,VWS V14.01,2013-04-24 10:24:00,
2013-04-24 05:29:00,41.0,34.7,29.56,West,270,12.3,12.3,78,0.00,,---,0.38,VWS V14.01,2013-04-24 10:29:00,
2013-04-24 05:34:00,40.6,33.3,29.56,West,270,12.3,12.3,75,0.00,,---,0.38,VWS V14.01,2013-04-24 10:34:00,
2013-04-24 05:39:00,40.6,33.0,29.56,West,270,12.3,12.3,74,0.00,,---,0.38,VWS V14.01,2013-04-24 10:39:00,
2013-04-24 05:44:00,40.6,32.7,29.56,West,270,12.3,12.3,73,0.00,,---,0.38,VWS V14.01,2013-04-24 10:44:00,
2013-04-24 05:49:00,40.6,32.3,29.59,West,270,12.3,12.3,72,0.00,,---,0.38,VWS V14.01,2013-04-24 10:49:00,
2013-04-24 05:54:00,40.6,32.7,29.59,West,270,12.3,12.3,73,0.00,,---,0.38,VWS V14.01,2013-04-24 10:54:00,
2013-04-24 05:59:00,40.6,33.0,29.59,West,270,12.3,12.3,74,0.00,,---,0.38,VWS V14.01,2013-04-24 10:59:00,
2013-04-24 06:04:00,40.6,32.7,29.59,West,270,12.3,12.3,73,0.00,,---,0.38,VWS V14.01,2013-04-24 11:04:00,
2013-04-24 06:10:00,40.6,33.0,29.59,West,270,12.3,12.3,74,0.00,,---,0.38,VWS V14.01,2013-04-24 11:10:00,
2013-04-24 06:15:00,40.6,32.7,29.59,West,270,12.3,12.3,73,0.00,,---,0.38,VWS V14.01,2013-04-24 11:15:00,
2013-04-24 06:20:00,40.6,32.7,29.59,West,270,12.3,12.3,73,0.00,,---,0.38,VWS V14.01,2013-04-24 11:20:00,
2013-04-24 06:25:00,40.6,33.0,29.59,West,270,12.3,12.3,74,0.00,,---,0.38,VWS V14.01,2013-04-24 11:25:00,
2013-04-24 06:30:00,40.6,33.0,29.59,West,270,12.3,12.3,74,0.00,,---,0.38,VWS V14.01,2013-04-24 11:30:00,
2013-04-24 06:35:00,40.6,32.7,29.59,West,270,12.3,12.3,73,0.00,,---,0.38,VWS V14.01,2013-04-24 11:35:00,
2013-04-24 06:40:00,40.8,32.8,29.59,West,270,12.3,12.3,73,0.00,,---,0.38,VWS V14.01,2013-04-24 11:40:00,
2013-04-24 06:45:00,40.8,33.2,29.59,West,270,12.3,12.3,74,0.00,,---,0.38,VWS V14.01,2013-04-24 11:45:00,
2013-04-24 06:50:00,40.8,33.5,29.62,West,270,12.3,12.3,75,0.00,,---,0.38,VWS V14.01,2013-04-24 11:50:00,
2013-04-24 06:55:00,40.8,33.5,29.62,West,270,12.3,12.3,75,0.00,,---,0.38,VWS V14.01,2013-04-24 11:55:00,
2013-04-24 07:00:00,41.0,33.7,29.62,West,270,12.3,12.3,75,0.00,,---,0.38,VWS V14.01,2013-04-24 12:00:00,
2013-04-24 07:05:00,40.8,33.2,29.62,West,270,12.3,12.3,74,0.00,,---,0.38,VWS V14.01,2013-04-24 12:05:00,
2013-04-24 07:10:00,41.0,33.0,29.62,West,270,12.3,12.3,73,0.00,,---,0.38,VWS V14.01,2013-04-24 12:10:00,
2013-04-24 07:15:00,40.8,32.2,29.62,West,270,12.3,12.3,71,0.00,,---,0.38,VWS V14.01,2013-04-24 12:15:00,
2013-04-24 07:20:00,41.0,32.0,29.62,West,270,12.3,12.3,70,0.00,,---,0.38,VWS V14.01,2013-04-24 12:20:00,
2013-04-24 07:25:00,41.0,32.0,29.62,West,270,12.3,12.3,70,0.00,,---,17.30,VWS V14.01,2013-04-24 12:25:00,
2013-04-24 07:30:00,41.2,32.2,29.62,West,270,12.3,12.3,70,0.00,,---,17.30,VWS V14.01,2013-04-24 12:30:00,
2013-04-24 07:35:00,41.2,32.2,29.62,West,270,12.3,12.3,70,0.00,,---,17.30,VWS V14.01,2013-04-24 12:35:00,
2013-04-24 07:40:00,41.2,31.8,29.62,West,270,12.3,12.3,69,0.00,,---,17.30,VWS V14.01,2013-04-24 12:40:00,
2013-04-24 07:45:00,41.4,31.2,29.62,West,270,12.3,12.3,67,0.00,,---,17.30,VWS V14.01,2013-04-24 12:45:00,
2013-04-24 07:50:00,41.5,31.4,29.62,West,270,12.3,12.3,67,0.00,,---,17.30,VWS V14.01,2013-04-24 12:50:00,
2013-04-24 07:55:00,41.7,31.2,29.62,West,270,12.3,12.3,66,0.00,,---,17.30,VWS V14.01,2013-04-24 12:55:00,
2013-04-24 08:00:00,41.7,31.2,29.62,West,270,12.3,12.3,66,0.00,,---,17.30,VWS V14.01,2013-04-24 13:00:00,
2013-04-24 08:05:00,41.9,29.5,29.62,West,270,12.3,12.3,61,0.00,,---,17.30,VWS V14.01,2013-04-24 13:05:00,
2013-04-24 08:10:00,42.1,29.6,29.62,West,270,12.3,12.3,61,0.00,,---,17.30,VWS V14.01,2013-04-24 13:10:00,
2013-04-24 08:15:00,42.1,29.6,29.62,West,270,12.3,12.3,61,0.00,,---,17.30,VWS V14.01,2013-04-24 13:15:00,
2013-04-24 08:20:00,42.1,28.8,29.62,West,270,12.3,12.3,59,0.00,,---,17.30,VWS V14.01,2013-04-24 13:20:00,
2013-04-24 08:25:00,42.3,28.5,29.62,West,270,12.3,12.3,58,0.00,,---,17.30,VWS V14.01,2013-04-24 13:25:00,
2013-04-24 08:30:00,42.4,28.7,29.62,West,270,12.3,12.3,58,0.00,,---,17.30,VWS V14.01,2013-04-24 13:30:00,
2013-04-24 08:35:00,42.4,27.9,29.62,West,270,12.3,12.3,56,0.00,,---,17.30,VWS V14.01,2013-04-24 13:35:00,
2013-04-24 08:40:00,42.6,26.7,29.62,West,270,12.3,12.3,53,0.00,,---,17.30,VWS V14.01,2013-04-24 13:40:00,
2013-04-24 08:45:00,42.6,26.7,29.65,West,270,12.3,12.3,53,0.00,,---,17.30,VWS V14.01,2013-04-24 13:45:00,
2013-04-24 08:50:00,43.3,27.4,29.65,West,270,12.3,12.3,53,0.00,,---,17.30,VWS V14.01,2013-04-24 13:50:00,
2013-04-24 08:55:00,43.3,27.4,29.65,West,270,12.3,12.3,53,0.00,,---,17.30,VWS V14.01,2013-04-24 13:55:00,
2013-04-24 09:00:00,43.9,26.5,29.65,West,270,12.3,12.3,50,0.00,,---,17.30,VWS V14.01,2013-04-24 14:00:00,
2013-04-24 09:06:00,44.1,26.1,29.62,West,270,12.3,12.3,49,0.00,,---,17.30,VWS V14.01,2013-04-24 14:06:00,
2013-04-24 09:11:00,44.1,25.6,29.62,West,270,12.3,12.3,48,0.00,,---,17.30,VWS V14.01,2013-04-24 14:11:00,
2013-04-24 09:16:00,44.1,25.6,29.65,West,270,12.3,12.3,48,0.00,,---,17.30,VWS V14.01,2013-04-24 14:16:00,
2013-04-24 09:21:00,44.2,25.3,29.65,West,270,12.3,12.3,47,0.00,,---,17.30,VWS V14.01,2013-04-24 14:21:00,
2013-04-24 09:26:00,44.4,26.0,29.65,West,270,12.3,12.3,48,0.00,,---,17.30,VWS V14.01,2013-04-24 14:26:00,
2013-04-24 09:31:00,44.2,24.8,29.68,West,270,12.3,12.3,46,0.00,,---,17.30,VWS V14.01,2013-04-24 14:31:00,
2013-04-24 09:36:00,44.4,24.4,29.68,West,270,12.3,12.3,45,0.00,,---,17.30,VWS V14.01,2013-04-24 14:36:00,
2013-04-24 09:41:00,44.6,23.5,29.68,West,270,12.3,12.3,43,0.00,,---,17.30,VWS V14.01,2013-04-24 14:41:00,
2013-04-24 09:46:00,45.0,23.8,29.65,West,270,12.3,12.3,43,0.00,,---,17.30,VWS V14.01,2013-04-24 14:46:00,
2013-04-24 09:51:00,45.0,24.4,29.65,West,270,12.3,12.3,44,0.00,,---,17.30,VWS V14.01,2013-04-24 14:51:00,
2013-04-24 09:56:00,45.3,24.2,29.65,West,270,12.3,12.3,43,0.00,,---,17.30,VWS V14.01,2013-04-24 14:56:00,
2013-04-24 10:01:00,45.7,23.9,29.65,West,270,12.3,12.3,42,0.00,,---,17.30,VWS V14.01,2013-04-24 15:01:00,
2013-04-24 10:09:00,45.9,23.5,29.65,West,270,12.3,12.3,41,0.00,,---,17.30,VWS V14.01,2013-04-24 15:09:00,
2013-04-24 10:14:00,46.0,23.7,29.65,West,270,12.3,12.3,41,0.00,,---,17.30,VWS V14.01,2013-04-24 15:14:00,
2013-04-24 10:19:00,46.4,23.4,29.65,West,270,12.3,12.3,40,0.00,,---,17.30,VWS V14.01,2013-04-24 15:19:00,
2013-04-24 10:24:00,47.5,24.4,29.65,West,270,12.3,12.3,40,0.00,,---,17.30,VWS V14.01,2013-04-24 15:24:00,
2013-04-24 10:29:00,48.0,24.3,29.65,West,270,12.3,12.3,39,0.00,,---,17.30,VWS V14.01,2013-04-24 15:29:00,
2013-04-24 10:34:00,47.7,23.3,29.65,West,270,12.3,12.3,38,0.00,,---,17.30,VWS V14.01,2013-04-24 15:34:00,
2013-04-24 10:40:00,48.0,23.6,29.65,West,270,12.3,12.3,38,0.00,,---,17.30,VWS V14.01,2013-04-24 15:40:00,
2013-04-24 10:45:00,47.8,23.5,29.65,West,270,12.3,12.3,38,0.00,,---,17.30,VWS V14.01,2013-04-24 15:45:00,
2013-04-24 10:50:00,48.9,25.1,29.68,West,270,12.3,12.3,39,0.00,,---,17.30,VWS V14.01,2013-04-24 15:50:00,
2013-04-24 10:55:00,49.6,23.8,29.68,West,270,12.3,12.3,36,0.00,,---,17.30,VWS V14.01,2013-04-24 15:55:00,
2013-04-24 11:00:00,50.4,23.8,29.68,West,270,12.3,12.3,35,0.00,,---,17.30,VWS V14.01,2013-04-24 16:00:00,
2013-04-24 11:05:00,50.2,22.2,29.68,West,270,12.3,12.3,33,0.00,,---,17.30,VWS V14.01,2013-04-24 16:05:00,
2013-04-24 11:10:00,49.1,21.3,29.68,West,270,12.3,12.3,33,0.00,,---,17.30,VWS V14.01,2013-04-24 16:10:00,
2013-04-24 11:15:00,49.8,23.3,29.68,West,270,12.3,12.3,35,0.00,,---,17.30,VWS V14.01,2013-04-24 16:15:00,
2013-04-24 11:20:00,50.7,23.4,29.68,West,270,12.3,12.3,34,0.00,,---,17.30,VWS V14.01,2013-04-24 16:20:00,
2013-04-24 11:25:00,50.9,24.9,29.68,West,270,12.3,12.3,36,0.00,,---,17.30,VWS V14.01,2013-04-24 16:25:00,
2013-04-24 11:30:00,51.1,23.7,29.68,West,270,12.3,12.3,34,0.00,,---,17.30,VWS V14.01,2013-04-24 16:30:00,
2013-04-24 11:35:00,50.7,22.0,29.68,West,270,12.3,12.3,32,0.00,,---,17.30,VWS V14.01,2013-04-24 16:35:00,
2013-04-24 11:40:00,51.4,24.0,29.68,West,270,12.3,12.3,34,0.00,,---,17.30,VWS V14.01,2013-04-24 16:40:00,
2013-04-24 11:45:00,51.8,23.6,29.68,West,270,12.3,12.3,33,0.00,,---,17.30,VWS V14.01,2013-04-24 16:45:00,
2013-04-24 11:50:00,52.3,21.0,29.68,West,270,12.3,12.3,29,0.00,,---,17.30,VWS V14.01,2013-04-24 16:50:00,
2013-04-24 11:55:00,53.2,23.4,29.68,West,270,12.3,12.3,31,0.00,,---,17.30,VWS V14.01,2013-04-24 16:55:00,
2013-04-24 12:00:00,54.7,23.9,29.68,West,270,12.3,12.3,30,0.00,,---,17.30,VWS V14.01,2013-04-24 17:00:00,
2013-04-24 12:05:00,53.8,21.5,29.68,West,270,12.3,12.3,28,0.00,,---,17.30,VWS V14.01,2013-04-24 17:05:00,
2013-04-24 12:10:00,52.3,20.2,29.68,West,270,12.3,12.3,28,0.00,,---,17.30,VWS V14.01,2013-04-24 17:10:00,
2013-04-24 12:15:00,52.3,21.0,29.68,West,270,12.3,12.3,29,0.00,,---,17.30,VWS V14.01,2013-04-24 17:15:00,
2013-04-24 12:20:00,52.7,21.4,29.65,West,270,12.3,12.3,29,0.00,,---,17.30,VWS V14.01,2013-04-24 17:20:00,
2013-04-24 12:25:00,53.4,22.0,29.65,West,270,12.3,12.3,29,0.00,,---,17.30,VWS V14.01,2013-04-24 17:25:00,
2013-04-24 12:30:00,52.3,20.2,29.68,West,270,12.3,12.3,28,0.00,,---,17.30,VWS V14.01,2013-04-24 17:30:00,
2013-04-24 12:35:00,52.5,20.4,29.68,West,270,12.3,12.3,28,0.00,,---,17.30,VWS V14.01,2013-04-24 17:35:00,
2013-04-24 12:40:00,53.2,21.8,29.68,West,270,12.3,12.3,29,0.00,,---,17.30,VWS V14.01,2013-04-24 17:40:00,
2013-04-24 12:45:00,53.2,21.0,29.68,West,270,12.3,12.3,28,0.00,,---,17.30,VWS V14.01,2013-04-24 17:45:00,
2013-04-24 12:50:00,54.9,24.0,29.68,West,270,12.3,12.3,30,0.00,,---,17.30,VWS V14.01,2013-04-24 17:50:00,
2013-04-24 12:55:00,55.6,23.0,29.68,West,270,12.3,12.3,28,0.00,,---,17.30,VWS V14.01,2013-04-24 17:55:00,
2013-04-24 13:00:00,54.1,20.9,29.68,West,270,12.3,12.3,27,0.00,,---,17.30,VWS V14.01,2013-04-24 18:00:00,
2013-04-24 13:05:00,54.3,21.1,29.68,West,270,12.3,12.3,27,0.00,,---,17.30,VWS V14.01,2013-04-24 18:05:00,
2013-04-24 13:10:00,54.7,21.4,29.68,West,270,12.3,12.3,27,0.00,,---,17.30,VWS V14.01,2013-04-24 18:10:00,
2013-04-24 13:15:00,55.6,21.3,29.65,West,270,12.3,12.3,26,0.00,,---,17.30,VWS V14.01,2013-04-24 18:15:00,
2013-04-24 13:20:00,55.4,21.1,29.65,West,270,12.3,12.3,26,0.00,,---,17.30,VWS V14.01,2013-04-24 18:20:00,
2013-04-24 13:25:00,54.9,20.6,29.65,West,270,12.3,12.3,26,0.00,,---,17.30,VWS V14.01,2013-04-24 18:25:00,
2013-04-24 13:30:00,56.7,22.2,29.65,West,270,12.3,12.3,26,0.00,,---,17.30,VWS V14.01,2013-04-24 18:30:00,
2013-04-24 13:35:00,56.1,20.8,29.65,West,270,12.3,12.3,25,0.00,,---,17.30,VWS V14.01,2013-04-24 18:35:00,
2013-04-24 13:41:00,55.9,21.6,29.65,West,270,12.3,12.3,26,0.00,,---,17.30,VWS V14.01,2013-04-24 18:41:00,
2013-04-24 13:46:00,56.1,20.8,29.65,West,270,12.3,12.3,25,0.00,,---,17.30,VWS V14.01,2013-04-24 18:46:00,
2013-04-24 13:51:00,56.3,21.9,29.65,West,270,12.3,12.3,26,0.00,,---,17.30,VWS V14.01,2013-04-24 18:51:00,
2013-04-24 13:56:00,56.3,21.0,29.65,West,270,12.3,12.3,25,0.00,,---,17.30,VWS V14.01,2013-04-24 18:56:00,
2013-04-24 14:01:00,56.5,21.1,29.65,West,270,12.3,12.3,25,0.00,,---,17.30,VWS V14.01,2013-04-24 19:01:00,
2013-04-24 14:06:00,57.0,21.6,29.65,West,270,12.3,12.3,25,0.00,,---,17.30,VWS V14.01,2013-04-24 19:06:00,
2013-04-24 14:11:00,58.1,22.5,29.65,West,270,12.3,12.3,25,0.00,,---,17.30,VWS V14.01,2013-04-24 19:11:00,
2013-04-24 14:16:00,58.3,19.6,29.65,West,270,12.3,12.3,22,0.00,,---,17.30,VWS V14.01,2013-04-24 19:16:00,
2013-04-24 14:21:00,57.2,20.8,29.65,West,270,12.3,12.3,24,0.00,,---,17.30,VWS V14.01,2013-04-24 19:21:00,
2013-04-24 14:26:00,57.6,21.1,29.65,West,270,12.3,12.3,24,0.00,,---,17.30,VWS V14.01,2013-04-24 19:26:00,
2013-04-24 14:31:00,57.9,22.3,29.65,West,270,12.3,12.3,25,0.00,,---,17.30,VWS V14.01,2013-04-24 19:31:00,
2013-04-24 14:36:00,57.7,22.2,29.65,West,270,12.3,12.3,25,0.00,,---,17.30,VWS V14.01,2013-04-24 19:36:00,
2013-04-24 14:41:00,58.8,23.1,29.65,West,270,12.3,12.3,25,0.00,,---,17.30,VWS V14.01,2013-04-24 19:41:00,
2013-04-24 14:46:00,58.5,21.8,29.62,West,270,12.3,12.3,24,0.00,,---,17.30,VWS V14.01,2013-04-24 19:46:00,
2013-04-24 14:51:00,58.8,22.1,29.62,West,270,12.3,12.3,24,0.00,,---,17.30,VWS V14.01,2013-04-24 19:51:00,
2013-04-24 14:56:00,59.2,22.4,29.62,West,270,12.3,12.3,24,0.00,,---,17.30,VWS V14.01,2013-04-24 19:56:00,
2013-04-24 15:01:00,59.5,22.7,29.62,West,270,12.3,12.3,24,0.00,,---,17.30,VWS V14.01,2013-04-24 20:01:00,
2013-04-24 15:06:00,59.4,20.5,29.62,West,270,12.3,12.3,22,0.00,,---,17.30,VWS V14.01,2013-04-24 20:06:00,
2013-04-24 15:11:00,59.5,20.7,29.62,West,270,12.3,12.3,22,0.00,,---,17.30,VWS V14.01,2013-04-24 20:11:00,
2013-04-24 15:16:00,59.4,20.5,29.62,West,270,12.3,12.3,22,0.00,,---,17.30,VWS V14.01,2013-04-24 20:16:00,
2013-04-24 15:21:00,58.8,20.1,29.62,West,270,12.3,12.3,22,0.00,,---,17.30,VWS V14.01,2013-04-24 20:21:00,
2013-04-24 15:26:00,59.0,20.2,29.62,West,270,12.3,12.3,22,0.00,,---,17.30,VWS V14.01,2013-04-24 20:26:00,
2013-04-24 15:31:00,59.0,22.3,29.62,West,270,12.3,12.3,24,0.00,,---,17.30,VWS V14.01,2013-04-24 20:31:00,
2013-04-24 15:36:00,59.0,20.2,29.62,West,270,12.3,12.3,22,0.00,,---,17.30,VWS V14.01,2013-04-24 20:36:00,
2013-04-24 15:41:00,59.2,22.4,29.62,West,270,12.3,12.3,24,0.00,,---,17.30,VWS V14.01,2013-04-24 20:41:00,
2013-04-24 15:46:00,59.2,22.4,29.62,West,270,12.3,12.3,24,0.00,,---,17.30,VWS V14.01,2013-04-24 20:46:00,
2013-04-24 15:51:00,60.1,24.2,29.62,West,270,12.3,12.3,25,0.00,,---,17.30,VWS V14.01,2013-04-24 20:51:00,
2013-04-24 15:56:00,59.5,22.7,29.62,West,270,12.3,12.3,24,0.00,,---,17.30,VWS V14.01,2013-04-24 20:56:00,
2013-04-24 16:01:00,59.5,22.7,29.62,West,270,12.3,12.3,24,0.00,,---,17.30,VWS V14.01,2013-04-24 21:01:00,
2013-04-24 16:06:00,59.9,23.0,29.62,West,270,12.3,12.3,24,0.00,,---,17.30,VWS V14.01,2013-04-24 21:06:00,
2013-04-24 16:11:00,60.6,23.6,29.62,West,270,12.3,12.3,24,0.00,,---,17.30,VWS V14.01,2013-04-24 21:11:00,
2013-04-24 16:16:00,60.4,23.5,29.62,West,270,12.3,12.3,24,0.00,,---,17.30,VWS V14.01,2013-04-24 21:16:00,
2013-04-24 16:21:00,60.6,23.6,29.62,West,270,12.3,12.3,24,0.00,,---,17.30,VWS V14.01,2013-04-24 21:21:00,
2013-04-24 16:26:00,60.8,23.8,29.62,West,270,12.3,12.3,24,0.00,,---,17.30,VWS V14.01,2013-04-24 21:26:00,
2013-04-24 16:31:00,60.3,23.4,29.62,West,270,12.3,12.3,24,0.00,,---,17.30,VWS V14.01,2013-04-24 21:31:00,
2013-04-24 16:37:00,60.6,23.6,29.62,West,270,12.3,12.3,24,0.00,,---,17.30,VWS V14.01,2013-04-24 21:37:00,
2013-04-24 16:42:00,60.8,23.8,29.62,West,270,12.3,12.3,24,0.00,,---,17.30,VWS V14.01,2013-04-24 21:42:00,
2013-04-24 16:47:00,60.4,23.5,29.62,West,270,12.3,12.3,24,0.00,,---,17.30,VWS V14.01,2013-04-24 21:47:00,
2013-04-24 16:52:00,60.6,23.6,29.62,West,270,12.3,12.3,24,0.00,,---,17.30,VWS V14.01,2013-04-24 21:52:00,
2013-04-24 16:57:00,60.6,23.6,29.62,West,270,12.3,12.3,24,0.00,,---,17.30,VWS V14.01,2013-04-24 21:57:00,
2013-04-24 17:02:00,60.6,23.6,29.62,West,270,12.3,12.3,24,0.00,,---,17.30,VWS V14.01,2013-04-24 22:02:00,
2013-04-24 17:07:00,60.6,23.6,29.62,West,270,12.3,12.3,24,0.00,,---,17.30,VWS V14.01,2013-04-24 22:07:00,
2013-04-24 17:12:00,60.4,23.5,29.62,West,270,12.3,12.3,24,0.00,,---,17.30,VWS V14.01,2013-04-24 22:12:00,
2013-04-24 17:17:00,60.8,23.8,29.59,West,270,12.3,12.3,24,0.00,,---,17.30,VWS V14.01,2013-04-24 22:17:00,
2013-04-24 17:22:00,60.8,23.8,29.59,West,270,12.3,12.3,24,0.00,,---,17.30,VWS V14.01,2013-04-24 22:22:00,
2013-04-24 17:27:00,60.3,23.4,29.59,West,270,12.3,12.3,24,0.00,,---,17.30,VWS V14.01,2013-04-24 22:27:00,
2013-04-24 17:32:00,60.4,23.5,29.62,West,270,12.3,12.3,24,0.00,,---,17.30,VWS V14.01,2013-04-24 22:32:00,
2013-04-24 17:37:00,61.0,24.0,29.62,West,270,12.3,12.3,24,0.00,,---,17.30,VWS V14.01,2013-04-24 22:37:00,
2013-04-24 17:42:00,61.0,24.0,29.62,West,270,12.3,12.3,24,0.00,,---,17.30,VWS V14.01,2013-04-24 22:42:00,
2013-04-24 17:47:00,61.0,24.0,29.62,West,270,12.3,12.3,24,0.00,,---,17.30,VWS V14.01,2013-04-24 22:47:00,
2013-04-24 17:52:00,60.6,23.6,29.62,West,270,12.3,12.3,24,0.00,,---,17.30,VWS V14.01,2013-04-24 22:52:00,
2013-04-24 17:57:00,61.0,24.0,29.62,West,270,12.3,12.3,24,0.00,,---,17.30,VWS V14.01,2013-04-24 22:57:00,
2013-04-24 18:02:00,60.3,23.4,29.62,West,270,12.3,12.3,24,0.00,,---,17.30,VWS V14.01,2013-04-24 23:02:00,
2013-04-24 18:07:00,60.6,23.6,29.62,West,270,12.3,12.3,24,0.00,,---,17.30,VWS V14.01,2013-04-24 23:07:00,
2013-04-24 18:12:00,60.6,23.6,29.62,West,270,12.3,12.3,24,0.00,,---,17.30,VWS V14.01,2013-04-24 23:12:00,
2013-04-24 18:17:00,60.3,23.4,29.62,West,270,12.3,12.3,24,0.00,,---,17.30,VWS V14.01,2013-04-24 23:17:00,
2013-04-24 18:22:00,60.6,23.6,29.62,West,270,12.3,12.3,24,0.00,,---,17.30,VWS V14.01,2013-04-24 23:22:00,
2013-04-24 18:27:00,60.6,23.6,29.62,West,270,12.3,12.3,24,0.00,,---,17.30,VWS V14.01,2013-04-24 23:27:00,
2013-04-24 18:32:00,60.4,21.4,29.62,West,270,12.3,12.3,22,0.00,,---,17.30,VWS V14.01,2013-04-24 23:32:00,
2013-04-24 18:37:00,60.1,23.2,29.62,West,270,12.3,12.3,24,0.00,,---,17.30,VWS V14.01,2013-04-24 23:37:00,
2013-04-24 18:42:00,60.1,23.2,29.62,West,270,12.3,12.3,24,0.00,,---,17.30,VWS V14.01,2013-04-24 23:42:00,
2013-04-24 18:47:00,59.7,22.9,29.62,West,270,12.3,12.3,24,0.00,,---,17.30,VWS V14.01,2013-04-24 23:47:00,
2013-04-24 18:52:00,59.5,22.7,29.62,West,270,12.3,12.3,24,0.00,,---,17.30,VWS V14.01,2013-04-24 23:52:00,
2013-04-24 18:57:00,59.0,22.3,29.62,West,270,12.3,12.3,24,0.00,,---,17.30,VWS V14.01,2013-04-24 23:57:00,
2013-04-24 19:02:00,58.8,22.1,29.62,West,270,12.3,12.3,24,0.00,,---,17.30,VWS V14.01,2013-04-25 00:02:00,
2013-04-24 19:07:00,58.6,22.0,29.62,West,270,12.3,12.3,24,0.00,,---,17.30,VWS V14.01,2013-04-25 00:07:00,
2013-04-24 19:12:00,58.8,23.1,29.62,West,270,12.3,12.3,25,0.00,,---,17.30,VWS V14.01,2013-04-25 00:12:00,
2013-04-24 19:17:00,58.3,22.6,29.62,West,270,12.3,12.3,25,0.00,,---,17.30,VWS V14.01,2013-04-25 00:17:00,
2013-04-24 19:22:00,58.3,22.6,29.62,West,270,12.3,12.3,25,0.00,,---,17.30,VWS V14.01,2013-04-25 00:22:00,
2013-04-24 19:27:00,57.9,22.3,29.62,West,270,12.3,12.3,25,0.00,,---,17.30,VWS V14.01,2013-04-25 00:27:00,
2013-04-24 19:32:00,57.7,22.2,29.62,West,270,12.3,12.3,25,0.00,,---,17.30,VWS V14.01,2013-04-25 00:32:00,
2013-04-24 19:38:00,57.4,21.9,29.62,West,270,12.3,12.3,25,0.00,,---,17.30,VWS V14.01,2013-04-25 00:38:00,
2013-04-24 19:43:00,57.2,21.7,29.62,West,270,12.3,12.3,25,0.00,,---,17.30,VWS V14.01,2013-04-25 00:43:00,
2013-04-24 19:48:00,56.8,21.4,29.62,West,270,12.3,12.3,25,0.00,,---,17.30,VWS V14.01,2013-04-25 00:48:00,
2013-04-24 19:53:00,56.5,22.0,29.62,West,270,12.3,12.3,26,0.00,,---,17.30,VWS V14.01,2013-04-25 00:53:00,
2013-04-24 19:58:00,55.6,21.3,29.62,West,270,12.3,12.3,26,0.00,,---,17.30,VWS V14.01,2013-04-25 00:58:00,
2013-04-24 20:03:00,54.9,21.5,29.59,West,270,12.3,12.3,27,0.00,,---,17.30,VWS V14.01,2013-04-25 01:03:00,
2013-04-24 20:08:00,54.0,22.5,29.59,West,270,12.3,12.3,29,0.00,,---,17.30,VWS V14.01,2013-04-25 01:08:00,
2013-04-24 20:13:00,53.4,22.8,29.59,West,270,12.3,12.3,30,0.00,,---,17.30,VWS V14.01,2013-04-25 01:13:00,
2013-04-24 20:18:00,52.9,23.9,29.62,West,270,12.3,12.3,32,0.00,,---,17.30,VWS V14.01,2013-04-25 01:18:00,
2013-04-24 20:23:00,52.5,23.5,29.62,West,270,12.3,12.3,32,0.00,,---,17.30,VWS V14.01,2013-04-25 01:23:00,
2013-04-24 20:28:00,51.6,22.7,29.62,West,270,12.3,12.3,32,0.00,,---,17.30,VWS V14.01,2013-04-25 01:28:00,
2013-04-24 20:33:00,50.7,24.8,29.65,West,270,12.3,12.3,36,0.00,,---,17.30,VWS V14.01,2013-04-25 01:33:00,
2013-04-24 20:38:00,50.2,24.3,29.65,West,270,12.3,12.3,36,0.00,,---,17.30,VWS V14.01,2013-04-25 01:38:00,
2013-04-24 20:43:00,50.0,24.8,29.65,West,270,12.3,12.3,37,0.00,,---,17.30,VWS V14.01,2013-04-25 01:43:00,
2013-04-24 20:48:00,49.8,25.2,29.65,West,270,12.3,12.3,38,0.00,,---,17.30,VWS V14.01,2013-04-25 01:48:00,
2013-04-24 20:53:00,49.8,25.2,29.65,West,270,12.3,12.3,38,0.00,,---,17.30,VWS V14.01,2013-04-25 01:53:00,
2013-04-24 20:58:00,49.8,24.6,29.65,West,270,12.3,12.3,37,0.00,,---,17.30,VWS V14.01,2013-04-25 01:58:00,
2013-04-24 21:03:00,49.8,24.6,29.68,West,270,12.3,12.3,37,0.00,,---,17.30,VWS V14.01,2013-04-25 02:03:00,
2013-04-24 21:08:00,49.6,25.1,29.68,West,270,12.3,12.3,38,0.00,,---,17.30,VWS V14.01,2013-04-25 02:08:00,
2013-04-24 21:13:00,49.5,24.9,29.68,West,270,12.3,12.3,38,0.00,,---,17.30,VWS V14.01,2013-04-25 02:13:00,
2013-04-24 21:18:00,49.1,25.2,29.65,West,270,12.3,12.3,39,0.00,,---,17.30,VWS V14.01,2013-04-25 02:18:00,
2013-04-24 21:23:00,48.9,24.5,29.65,West,270,12.3,12.3,38,0.00,,---,17.30,VWS V14.01,2013-04-25 02:23:00,
2013-04-24 21:28:00,48.9,24.5,29.65,West,270,12.3,12.3,38,0.00,,---,17.30,VWS V14.01,2013-04-25 02:28:00,
2013-04-24 21:33:00,48.4,24.0,29.65,West,270,12.3,12.3,38,0.00,,---,17.30,VWS V14.01,2013-04-25 02:33:00,
2013-04-24 21:38:00,48.2,23.8,29.65,West,270,12.3,12.3,38,0.00,,---,17.30,VWS V14.01,2013-04-25 02:38:00,
2013-04-24 21:43:00,47.7,23.3,29.65,West,270,12.3,12.3,38,0.00,,---,17.30,VWS V14.01,2013-04-25 02:43:00,
2013-04-24 21:48:00,47.5,23.8,29.68,West,270,12.3,12.3,39,0.00,,---,17.30,VWS V14.01,2013-04-25 02:48:00,
2013-04-24 21:53:00,47.3,24.2,29.68,West,270,12.3,12.3,40,0.00,,---,17.30,VWS V14.01,2013-04-25 02:53:00,
2013-04-24 21:58:00,47.1,24.6,29.68,West,270,12.3,12.3,41,0.00,,---,17.30,VWS V14.01,2013-04-25 02:58:00,
2013-04-24 22:03:00,46.8,25.5,29.71,West,270,12.3,12.3,43,0.00,,---,17.30,VWS V14.01,2013-04-25 03:03:00,
2013-04-24 22:05:00,44.2,27.3,29.71,West,270,12.3,12.3,51,0.00,,---,17.30,VWS V14.01,2013-04-25 03:05:00,
2013-04-24 22:06:00,44.1,27.6,29.71,West,270,12.3,12.3,52,0.00,,---,17.30,VWS V14.01,2013-04-25 03:06:00,
2013-04-24 22:07:00,43.9,28.3,29.71,West,270,12.3,12.3,54,0.00,,---,17.30,VWS V14.01,2013-04-25 03:07:00,
2013-04-24 22:08:00,46.6,25.3,29.71,West,270,12.3,12.3,43,0.00,,---,17.30,VWS V14.01,2013-04-25 03:08:00,
2013-04-24 22:09:00,43.7,28.2,29.71,West,270,12.3,12.3,54,0.00,,---,17.30,VWS V14.01,2013-04-25 03:09:00,
2013-04-24 22:10:00,43.7,28.2,29.71,West,270,12.3,12.3,54,0.00,,---,17.30,VWS V14.01,2013-04-25 03:10:00,
2013-04-24 22:11:00,43.5,27.5,29.71,West,270,12.3,12.3,53,0.00,,---,17.30,VWS V14.01,2013-04-25 03:11:00,
2013-04-24 22:12:00,43.5,27.5,29.71,West,270,12.3,12.3,53,0.00,,---,17.30,VWS V14.01,2013-04-25 03:12:00,
2013-04-24 22:13:00,46.2,27.1,29.71,West,270,12.3,12.3,47,0.00,,---,17.30,VWS V14.01,2013-04-25 03:13:00,
2013-04-24 22:14:00,43.3,28.3,29.71,West,270,12.3,12.3,55,0.00,,---,17.30,VWS V14.01,2013-04-25 03:14:00,
2013-04-24 22:16:00,43.3,27.8,29.71,West,270,12.3,12.3,54,0.00,,---,17.30,VWS V14.01,2013-04-25 03:16:00,
2013-04-24 22:17:00,43.2,27.7,29.71,West,270,12.3,12.3,54,0.00,,---,17.30,VWS V14.01,2013-04-25 03:17:00,
2013-04-24 22:18:00,45.9,26.3,29.71,West,270,12.3,12.3,46,0.00,,---,17.30,VWS V14.01,2013-04-25 03:18:00,
2013-04-24 22:19:00,43.2,27.7,29.71,West,270,12.3,12.3,54,0.00,,---,17.30,VWS V14.01,2013-04-25 03:19:00,
2013-04-24 22:20:00,43.2,27.7,29.71,West,270,12.3,12.3,54,0.00,,---,17.30,VWS V14.01,2013-04-25 03:20:00,
2013-04-24 22:21:00,43.2,28.1,29.71,West,270,12.3,12.3,55,0.00,,---,17.30,VWS V14.01,2013-04-25 03:21:00,
2013-04-24 22:22:00,43.2,28.1,29.71,West,270,12.3,12.3,55,0.00,,---,17.30,VWS V14.01,2013-04-25 03:22:00,
2013-04-24 22:23:00,45.9,25.7,29.71,West,270,12.3,12.3,45,0.00,,---,17.30,VWS V14.01,2013-04-25 03:23:00,
2013-04-24 22:24:00,43.0,28.8,29.71,West,270,12.3,12.3,57,0.00,,---,17.30,VWS V14.01,2013-04-25 03:24:00,
2013-04-24 22:25:00,43.0,28.8,29.71,West,270,12.3,12.3,57,0.00,,---,17.30,VWS V14.01,2013-04-25 03:25:00,
2013-04-24 22:26:00,43.0,28.8,29.71,West,270,12.3,12.3,57,0.00,,---,17.30,VWS V14.01,2013-04-25 03:26:00,
2013-04-24 22:27:00,43.0,29.2,29.71,West,270,12.3,12.3,58,0.00,,---,17.30,VWS V14.01,2013-04-25 03:27:00,
2013-04-24 22:28:00,45.9,26.8,29.71,West,270,12.3,12.3,47,0.00,,---,17.30,VWS V14.01,2013-04-25 03:28:00,
2013-04-24 22:29:00,42.8,28.6,29.71,West,270,12.3,12.3,57,0.00,,---,17.30,VWS V14.01,2013-04-25 03:29:00,
2013-04-24 22:30:00,42.8,28.6,29.71,West,270,12.3,12.3,57,0.00,,---,17.30,VWS V14.01,2013-04-25 03:30:00,
2013-04-24 22:31:00,42.6,28.0,29.71,West,270,12.3,12.3,56,0.00,,---,17.30,VWS V14.01,2013-04-25 03:31:00,
2013-04-24 22:32:00,42.6,28.0,29.71,West,270,12.3,12.3,56,0.00,,---,17.30,VWS V14.01,2013-04-25 03:32:00,
2013-04-24 22:33:00,45.9,26.8,29.71,West,270,12.3,12.3,47,0.00,,---,17.30,VWS V14.01,2013-04-25 03:33:00,
2013-04-24 22:34:00,42.6,27.6,29.71,West,270,12.3,12.3,55,0.00,,---,17.30,VWS V14.01,2013-04-25 03:34:00,
2013-04-24 22:35:00,42.6,27.6,29.71,West,270,12.3,12.3,55,0.00,,---,17.30,VWS V14.01,2013-04-25 03:35:00,
2013-04-24 22:36:00,42.6,27.6,29.71,West,270,12.3,12.3,55,0.00,,---,17.30,VWS V14.01,2013-04-25 03:36:00,
2013-04-24 22:37:00,42.6,27.6,29.71,West,270,12.3,12.3,55,0.00,,---,17.30,VWS V14.01,2013-04-25 03:37:00,
2013-04-24 22:38:00,45.5,26.5,29.71,West,270,12.3,12.3,47,0.00,,---,17.30,VWS V14.01,2013-04-25 03:38:00,
2013-04-24 22:39:00,42.6,27.6,29.71,West,270,12.3,12.3,55,0.00,,---,17.30,VWS V14.01,2013-04-25 03:39:00,
2013-04-24 22:40:00,42.6,27.6,29.71,West,270,12.3,12.3,55,0.00,,---,17.30,VWS V14.01,2013-04-25 03:40:00,
2013-04-24 22:41:00,42.6,28.9,29.71,West,270,12.3,12.3,58,0.00,,---,17.30,VWS V14.01,2013-04-25 03:41:00,
2013-04-24 22:42:00,42.6,28.9,29.71,West,270,12.3,12.3,58,0.00,,---,17.30,VWS V14.01,2013-04-25 03:42:00,
2013-04-24 22:43:00,45.3,26.3,29.71,West,270,12.3,12.3,47,0.00,,---,17.30,VWS V14.01,2013-04-25 03:43:00,
2013-04-24 22:44:00,42.4,28.3,29.71,West,270,12.3,12.3,57,0.00,,---,17.30,VWS V14.01,2013-04-25 03:44:00,
2013-04-24 22:45:00,42.4,28.3,29.71,West,270,12.3,12.3,57,0.00,,---,17.30,VWS V14.01,2013-04-25 03:45:00,
2013-04-24 22:46:00,42.4,27.9,29.71,West,270,12.3,12.3,56,0.00,,---,17.30,VWS V14.01,2013-04-25 03:46:00,
2013-04-24 22:47:00,42.4,27.9,29.71,West,270,12.3,12.3,56,0.00,,---,17.30,VWS V14.01,2013-04-25 03:47:00,
2013-04-24 22:48:00,45.1,26.6,29.71,West,270,12.3,12.3,48,0.00,,---,17.30,VWS V14.01,2013-04-25 03:48:00,
2013-04-24 22:49:00,42.4,28.3,29.71,West,270,12.3,12.3,57,0.00,,---,17.30,VWS V14.01,2013-04-25 03:49:00,
2013-04-24 22:50:00,42.4,28.3,29.71,West,270,12.3,12.3,57,0.00,,---,17.30,VWS V14.01,2013-04-25 03:50:00,
2013-04-24 22:51:00,42.4,28.7,29.71,West,270,12.3,12.3,58,0.00,,---,17.30,VWS V14.01,2013-04-25 03:51:00,
2013-04-24 22:53:00,45.0,26.5,29.71,West,270,12.3,12.3,48,0.00,,---,17.30,VWS V14.01,2013-04-25 03:53:00,
2013-04-24 22:54:00,42.4,28.7,29.71,West,270,12.3,12.3,58,0.00,,---,17.30,VWS V14.01,2013-04-25 03:54:00,
2013-04-24 22:55:00,42.4,28.7,29.71,West,270,12.3,12.3,58,0.00,,---,17.30,VWS V14.01,2013-04-25 03:55:00,
2013-04-24 22:56:00,42.4,28.7,29.71,West,270,12.3,12.3,58,0.00,,---,17.30,VWS V14.01,2013-04-25 03:56:00,
2013-04-24 22:57:00,42.6,28.9,29.71,West,270,12.3,12.3,58,0.00,,---,17.30,VWS V14.01,2013-04-25 03:57:00,
2013-04-24 22:58:00,44.4,27.9,29.71,West,270,12.3,12.3,52,0.00,,---,17.30,VWS V14.01,2013-04-25 03:58:00,
2013-04-24 22:59:00,42.6,29.3,29.71,West,270,12.3,12.3,59,0.00,,---,17.30,VWS V14.01,2013-04-25 03:59:00,
2013-04-24 23:00:00,42.6,29.3,29.71,West,270,12.3,12.3,59,0.00,,---,0.21,VWS V14.01,2013-04-25 04:00:00,
2013-04-24 23:02:00,42.6,29.3,29.71,West,270,12.3,12.3,59,0.00,,---,17.30,VWS V14.01,2013-04-25 04:02:00,
2013-04-24 23:03:00,42.6,29.3,29.74,West,270,12.3,12.3,59,0.00,,---,17.30,VWS V14.01,2013-04-25 04:03:00,
2013-04-24 23:04:00,42.6,29.3,29.74,West,270,12.3,12.3,59,0.00,,---,17.30,VWS V14.01,2013-04-25 04:04:00,
2013-04-24 23:05:00,42.6,29.3,29.74,West,270,12.3,12.3,59,0.00,,---,17.30,VWS V14.01,2013-04-25 04:05:00,
2013-04-24 23:06:00,42.6,29.3,29.74,West,270,12.3,12.3,59,0.00,,---,17.30,VWS V14.01,2013-04-25 04:06:00,
2013-04-24 23:07:00,42.4,29.1,29.74,West,270,12.3,12.3,59,0.00,,---,17.30,VWS V14.01,2013-04-25 04:07:00,
2013-04-24 23:08:00,42.4,29.1,29.74,West,270,12.3,12.3,59,0.00,,---,17.30,VWS V14.01,2013-04-25 04:08:00,
2013-04-24 23:09:00,42.4,29.1,29.74,West,270,12.3,12.3,59,0.00,,---,17.30,VWS V14.01,2013-04-25 04:09:00,
2013-04-24 23:10:00,42.4,28.7,29.74,West,270,12.3,12.3,58,0.00,,---,17.30,VWS V14.01,2013-04-25 04:10:00,
2013-04-24 23:11:00,42.4,28.7,29.74,West,270,12.3,12.3,58,0.00,,---,17.30,VWS V14.01,2013-04-25 04:11:00,
2013-04-24 23:12:00,42.4,28.7,29.74,West,270,12.3,12.3,58,0.00,,---,17.30,VWS V14.01,2013-04-25 04:12:00,
2013-04-24 23:13:00,42.4,29.1,29.74,West,270,12.3,12.3,59,0.00,,---,17.30,VWS V14.01,2013-04-25 04:13:00,
2013-04-24 23:14:00,42.4,29.1,29.74,West,270,12.3,12.3,59,0.00,,---,17.30,VWS V14.01,2013-04-25 04:14:00,
2013-04-24 23:15:00,42.4,29.1,29.74,West,270,12.3,12.3,59,0.00,,---,17.30,VWS V14.01,2013-04-25 04:15:00,
2013-04-24 23:16:00,42.4,29.5,29.74,West,270,12.3,12.3,60,0.00,,---,17.30,VWS V14.01,2013-04-25 04:16:00,
2013-04-24 23:18:00,42.4,30.4,29.74,West,270,12.3,12.3,62,0.00,,---,17.30,VWS V14.01,2013-04-25 04:18:00,
2013-04-24 23:19:00,42.4,30.8,29.74,West,270,12.3,12.3,63,0.00,,---,17.30,VWS V14.01,2013-04-25 04:19:00,
2013-04-24 23:20:00,42.4,30.8,29.74,West,270,12.3,12.3,63,0.00,,---,17.30,VWS V14.01,2013-04-25 04:20:00,
2013-04-24 23:21:00,42.3,31.0,29.74,West,270,12.3,12.3,64,0.00,,---,17.30,VWS V14.01,2013-04-25 04:21:00,
2013-04-24 23:22:00,42.3,31.0,29.74,West,270,12.3,12.3,64,0.00,,---,17.30,VWS V14.01,2013-04-25 04:22:00,
2013-04-24 23:24:00,42.3,31.0,29.74,West,270,12.3,12.3,64,0.00,,---,17.30,VWS V14.01,2013-04-25 04:24:00,
2013-04-24 23:25:00,42.3,31.4,29.74,West,270,12.3,12.3,65,0.00,,---,17.30,VWS V14.01,2013-04-25 04:25:00,
2013-04-24 23:26:00,42.1,31.2,29.74,West,270,12.3,12.3,65,0.00,,---,17.30,VWS V14.01,2013-04-25 04:26:00,
2013-04-24 23:29:00,41.9,30.6,29.74,West,270,12.3,12.3,64,0.00,,---,17.30,VWS V14.01,2013-04-25 04:29:00,
2013-04-24 23:46:00,41.4,29.3,29.74,West,270,12.3,12.3,62,0.00,,---,17.30,VWS V14.01,2013-04-25 04:46:00,
2013-04-24 23:48:00,41.5,30.3,29.74,West,270,12.3,12.3,64,0.00,,---,17.30,VWS V14.01,2013-04-25 04:48:00,
2013-04-24 23:49:00,41.4,30.5,29.74,West,270,12.3,12.3,65,0.00,,---,17.30,VWS V14.01,2013-04-25 04:49:00,
2013-04-24 23:50:00,41.2,30.3,29.74,West,270,12.3,12.3,65,0.00,,---,17.30,VWS V14.01,2013-04-25 04:50:00,